Time,TemperatureF,DewpointF,PressureIn,WindDirection,WindDirectionDegrees,WindSpeedMPH,WindSpeedGustMPH,Humidity,HourlyPrecipIn,Conditions,Clouds,dailyrainin,SolarRadiationWatts/m^2,SoftwareType,DateUTC
2013-01-19 00:02:00,53.0,19.0,-100.00,East,90,7.0,12.0,26,0.00,,,0.00,0.000000,,2013-01-19 08:02:00,
2013-01-19 00:11:00,52.0,18.0,-100.00,East,84,6.0,13.0,26,0.00,,,0.00,0.000000,,2013-01-19 08:11:00,
2013-01-19 00:33:00,52.0,18.0,-100.00,East,84,6.0,13.0,26,0.00,,,0.00,0.000000,,2013-01-19 08:33:00,
2013-01-19 00:43:00,52.0,18.0,-100.00,East,84,6.0,13.0,26,0.00,,,0.00,0.000000,,2013-01-19 08:43:00,
2013-01-19 00:53:00,52.0,18.0,-100.00,East,84,6.0,13.0,26,0.00,,,0.00,0.000000,,2013-01-19 08:53:00,
2013-01-19 01:02:00,52.0,18.0,-100.00,East,84,6.0,13.0,26,0.00,,,0.00,0.000000,,2013-01-19 09:02:00,
2013-01-19 01:33:00,53.0,16.0,-100.00,ENE,71,7.0,11.0,23,0.00,,,-99.99,0.000000,,2013-01-19 09:33:00,
2013-01-19 01:43:00,53.0,16.0,-100.00,ENE,71,7.0,11.0,23,0.00,,,-99.99,0.000000,,2013-01-19 09:43:00,
2013-01-19 01:52:00,53.0,16.0,-100.00,ENE,71,7.0,11.0,23,0.00,,,-99.99,0.000000,,2013-01-19 09:52:00,
2013-01-19 02:02:00,53.0,16.0,-100.00,ENE,71,7.0,11.0,23,0.00,,,-99.99,0.000000,,2013-01-19 10:02:00,
2013-01-19 02:11:00,54.0,18.0,-100.00,ENE,71,5.0,9.0,24,0.00,,,0.00,0.000000,,2013-01-19 10:11:00,
2013-01-19 02:33:00,54.0,18.0,-100.00,ENE,71,5.0,9.0,24,0.00,,,0.00,0.000000,,2013-01-19 10:33:00,
2013-01-19 02:43:00,54.0,18.0,-100.00,ENE,71,5.0,9.0,24,0.00,,,0.00,0.000000,,2013-01-19 10:43:00,
2013-01-19 02:53:00,54.0,18.0,-100.00,ENE,71,5.0,9.0,24,0.00,,,0.00,0.000000,,2013-01-19 10:53:00,
2013-01-19 03:02:00,54.0,18.0,-100.00,ENE,71,5.0,9.0,24,0.00,,,0.00,0.000000,,2013-01-19 11:02:00,
2013-01-19 04:11:00,52.0,15.0,-100.00,ENE,76,8.0,11.0,23,0.00,,,0.00,0.000000,,2013-01-19 12:11:00,
2013-01-19 04:48:00,52.0,15.0,-100.00,ENE,76,8.0,11.0,23,0.00,,,0.00,0.000000,,2013-01-19 12:48:00,
2013-01-19 04:53:00,52.0,15.0,-100.00,ENE,76,8.0,11.0,23,0.00,,,0.00,0.000000,,2013-01-19 12:53:00,
2013-01-19 05:02:00,52.0,15.0,-100.00,ENE,76,8.0,11.0,23,0.00,,,0.00,0.000000,,2013-01-19 13:02:00,
2013-01-19 05:11:00,51.0,15.0,-100.00,East,83,9.0,12.0,23,0.00,,,0.00,0.000000,,2013-01-19 13:11:00,
2013-01-19 05:34:00,51.0,15.0,-100.00,East,83,9.0,12.0,23,0.00,,,0.00,0.000000,,2013-01-19 13:34:00,
2013-01-19 05:43:00,51.0,15.0,-100.00,East,83,9.0,12.0,23,0.00,,,0.00,0.000000,,2013-01-19 13:43:00,
2013-01-19 05:53:00,51.0,15.0,-100.00,East,83,9.0,12.0,23,0.00,,,0.00,0.000000,,2013-01-19 13:53:00,
2013-01-19 06:02:00,51.0,15.0,-100.00,East,83,9.0,12.0,23,0.00,,,0.00,0.000000,,2013-01-19 14:02:00,
2013-01-19 06:34:00,52.0,12.0,-100.00,East,79,8.0,13.0,20,0.00,,,0.00,0.000000,,2013-01-19 14:34:00,
2013-01-19 07:11:00,51.0,12.0,-100.00,East,88,8.0,13.0,21,0.00,,,0.00,1.000000,,2013-01-19 15:11:00,
2013-01-19 07:43:00,51.0,12.0,-100.00,East,88,8.0,13.0,21,0.00,,,0.00,1.000000,,2013-01-19 15:43:00,
2013-01-19 07:53:00,51.0,12.0,-100.00,East,88,8.0,13.0,21,0.00,,,0.00,1.000000,,2013-01-19 15:53:00,
2013-01-19 08:02:00,51.0,12.0,-100.00,East,88,8.0,13.0,21,0.00,,,0.00,1.000000,,2013-01-19 16:02:00,
2013-01-19 08:11:00,57.0,11.0,-100.00,ESE,114,12.0,15.0,16,0.00,,,0.00,49.000000,,2013-01-19 16:11:00,
2013-01-19 08:33:00,57.0,11.0,-100.00,ESE,114,12.0,15.0,16,0.00,,,0.00,49.000000,,2013-01-19 16:33:00,
2013-01-19 08:43:00,57.0,11.0,-100.00,ESE,114,12.0,15.0,16,0.00,,,0.00,49.000000,,2013-01-19 16:43:00,
2013-01-19 08:54:00,57.0,11.0,-100.00,ESE,114,12.0,15.0,16,0.00,,,0.00,49.000000,,2013-01-19 16:54:00,
2013-01-19 09:02:00,57.0,11.0,-100.00,ESE,114,12.0,15.0,16,0.00,,,0.00,49.000000,,2013-01-19 17:02:00,
2013-01-19 09:11:00,60.0,15.0,-100.00,ESE,117,9.0,15.0,17,0.00,,,0.00,224.000000,,2013-01-19 17:11:00,
2013-01-19 09:37:00,60.0,15.0,-100.00,ESE,117,9.0,15.0,17,0.00,,,0.00,224.000000,,2013-01-19 17:37:00,
2013-01-19 09:49:00,60.0,15.0,-100.00,ESE,117,9.0,15.0,17,0.00,,,0.00,224.000000,,2013-01-19 17:49:00,
2013-01-19 10:04:00,60.0,15.0,-100.00,ESE,117,9.0,15.0,17,0.00,,,0.00,224.000000,,2013-01-19 18:04:00,
2013-01-19 10:37:00,65.0,19.0,-100.00,SE,142,7.0,15.0,17,0.00,,,0.00,367.000000,,2013-01-19 18:37:00,
2013-01-19 10:46:00,65.0,19.0,-100.00,SE,142,7.0,15.0,17,0.00,,,0.00,367.000000,,2013-01-19 18:46:00,
2013-01-19 11:04:00,65.0,19.0,-100.00,SE,142,7.0,15.0,17,0.00,,,0.00,367.000000,,2013-01-19 19:04:00,
2013-01-19 11:11:00,67.0,19.0,-100.00,SE,133,12.0,18.0,16,0.00,,,0.00,517.000000,,2013-01-19 19:11:00,
2013-01-19 11:49:00,67.0,19.0,-100.00,SE,133,12.0,18.0,16,0.00,,,0.00,517.000000,,2013-01-19 19:49:00,
2013-01-19 11:55:00,67.0,19.0,-100.00,SE,133,12.0,18.0,16,0.00,,,0.00,517.000000,,2013-01-19 19:55:00,
2013-01-19 12:07:00,67.0,19.0,-100.00,SE,133,12.0,18.0,16,0.00,,,0.00,517.000000,,2013-01-19 20:07:00,
2013-01-19 12:11:00,70.0,17.0,-100.00,SSE,160,13.0,19.0,13,0.00,,,-99.99,584.000000,,2013-01-19 20:11:00,
2013-01-19 12:39:00,70.0,17.0,-100.00,SSE,160,13.0,19.0,13,0.00,,,-99.99,584.000000,,2013-01-19 20:39:00,
2013-01-19 13:11:00,69.0,12.0,-100.00,SSE,161,12.0,24.0,11,0.00,,,0.00,563.000000,,2013-01-19 21:11:00,
2013-01-19 13:53:00,69.0,12.0,-100.00,SSE,161,12.0,24.0,11,0.00,,,0.00,563.000000,,2013-01-19 21:53:00,
2013-01-19 13:58:00,69.0,12.0,-100.00,SSE,161,12.0,24.0,11,0.00,,,0.00,563.000000,,2013-01-19 21:58:00,
2013-01-19 14:48:00,69.0,12.0,-100.00,SSE,159,12.0,20.0,11,0.00,,,0.00,433.000000,,2013-01-19 22:48:00,
2013-01-19 14:57:00,69.0,12.0,-100.00,SSE,159,12.0,20.0,11,0.00,,,0.00,433.000000,,2013-01-19 22:57:00,
2013-01-19 15:11:00,70.0,13.0,-100.00,South,171,9.0,16.0,11,0.00,,,0.00,367.000000,,2013-01-19 23:11:00,
2013-01-19 15:35:00,70.0,13.0,-100.00,South,171,9.0,16.0,11,0.00,,,0.00,367.000000,,2013-01-19 23:35:00,
2013-01-19 15:49:00,70.0,13.0,-100.00,South,171,9.0,16.0,11,0.00,,,0.00,367.000000,,2013-01-19 23:49:00,
2013-01-19 16:04:00,70.0,13.0,-100.00,South,171,9.0,16.0,11,0.00,,,0.00,367.000000,,2013-01-20 00:04:00,
2013-01-19 16:38:00,69.0,10.0,-100.00,SSE,148,8.0,15.0,10,0.00,,,0.00,178.000000,,2013-01-20 00:38:00,
2013-01-19 17:11:00,63.0,16.0,-100.00,ESE,102,4.0,11.0,16,0.00,,,0.00,83.000000,,2013-01-20 01:11:00,
2013-01-19 17:38:00,63.0,16.0,-100.00,ESE,102,4.0,11.0,16,0.00,,,0.00,83.000000,,2013-01-20 01:38:00,
2013-01-19 18:02:00,63.0,16.0,-100.00,ESE,102,4.0,11.0,16,0.00,,,0.00,83.000000,,2013-01-20 02:02:00,
2013-01-19 18:11:00,54.0,15.0,-100.00,ENE,72,6.0,12.0,21,0.00,,,0.00,3.000000,,2013-01-20 02:11:00,
2013-01-19 18:38:00,54.0,15.0,-100.00,ENE,72,6.0,12.0,21,0.00,,,0.00,3.000000,,2013-01-20 02:38:00,
2013-01-19 19:11:00,50.0,16.0,-100.00,East,101,6.0,9.0,26,0.00,,,0.00,0.000000,,2013-01-20 03:11:00,
2013-01-19 19:39:00,50.0,16.0,-100.00,East,101,6.0,9.0,26,0.00,,,0.00,0.000000,,2013-01-20 03:39:00,
2013-01-19 19:55:00,50.0,16.0,-100.00,East,101,6.0,9.0,26,0.00,,,0.00,0.000000,,2013-01-20 03:55:00,
2013-01-19 20:03:00,50.0,16.0,-100.00,East,101,6.0,9.0,26,0.00,,,0.00,0.000000,,2013-01-20 04:03:00,
2013-01-19 20:11:00,48.0,17.0,-100.00,ESE,105,4.0,10.0,29,0.00,,,0.00,0.000000,,2013-01-20 04:11:00,
2013-01-19 20:38:00,48.0,17.0,-100.00,ESE,105,4.0,10.0,29,0.00,,,0.00,0.000000,,2013-01-20 04:38:00,
2013-01-19 20:45:00,48.0,17.0,-100.00,ESE,105,4.0,10.0,29,0.00,,,0.00,0.000000,,2013-01-20 04:45:00,
2013-01-19 20:55:00,48.0,17.0,-100.00,ESE,105,4.0,10.0,29,0.00,,,0.00,0.000000,,2013-01-20 04:55:00,
2013-01-19 21:03:00,48.0,17.0,-100.00,ESE,105,4.0,10.0,29,0.00,,,0.00,0.000000,,2013-01-20 05:03:00,
2013-01-19 21:11:00,50.0,19.0,-100.00,East,101,4.0,8.0,29,0.00,,,0.00,0.000000,,2013-01-20 05:11:00,
2013-01-19 21:33:00,50.0,19.0,-100.00,East,101,4.0,8.0,29,0.00,,,0.00,0.000000,,2013-01-20 05:33:00,
2013-01-19 21:43:00,50.0,19.0,-100.00,East,101,4.0,8.0,29,0.00,,,0.00,0.000000,,2013-01-20 05:43:00,
2013-01-19 21:53:00,50.0,19.0,-100.00,East,101,4.0,8.0,29,0.00,,,0.00,0.000000,,2013-01-20 05:53:00,
2013-01-19 22:02:00,50.0,19.0,-100.00,East,101,4.0,8.0,29,0.00,,,0.00,0.000000,,2013-01-20 06:02:00,
2013-01-19 22:11:00,54.0,18.0,-100.00,ENE,78,8.0,12.0,24,0.00,,,0.00,0.000000,,2013-01-20 06:11:00,
2013-01-19 22:33:00,54.0,18.0,-100.00,ENE,78,8.0,12.0,24,0.00,,,0.00,0.000000,,2013-01-20 06:33:00,
2013-01-19 22:43:00,54.0,18.0,-100.00,ENE,78,8.0,12.0,24,0.00,,,0.00,0.000000,,2013-01-20 06:43:00,
2013-01-19 22:53:00,54.0,18.0,-100.00,ENE,78,8.0,12.0,24,0.00,,,0.00,0.000000,,2013-01-20 06:53:00,
2013-01-19 23:02:00,54.0,18.0,-100.00,ENE,78,8.0,12.0,24,0.00,,,0.00,0.000000,,2013-01-20 07:02:00,
2013-01-19 23:11:00,51.0,17.0,-100.00,East,90,8.0,10.0,26,0.00,,,0.00,0.000000,,2013-01-20 07:11:00,
2013-01-19 23:32:00,51.0,17.0,-100.00,East,90,8.0,10.0,26,0.00,,,0.00,0.000000,,2013-01-20 07:32:00,
2013-01-19 23:42:00,51.0,17.0,-100.00,East,90,8.0,10.0,26,0.00,,,0.00,0.000000,,2013-01-20 07:42:00,
2013-01-19 23:52:00,51.0,17.0,-100.00,East,90,8.0,10.0,26,0.00,,,0.00,0.000000,,2013-01-20 07:52:00,